sensor_id;sensor_type;location;lat;lon;timestamp;P1;durP1;ratioP1;P2;durP2;ratioP2
24443;SDS011;13346;50.984;5.822;2023-04-24T00:02:04;2.77;;;2.57;;
24443;SDS011;13346;50.984;5.822;2023-04-24T00:04:36;3.30;;;3.10;;
24443;SDS011;13346;50.984;5.822;2023-04-24T00:07:05;3.30;;;3.00;;
24443;SDS011;13346;50.984;5.822;2023-04-24T00:09:33;3.10;;;2.83;;
24443;SDS011;13346;50.984;5.822;2023-04-24T00:12:00;3.60;;;3.30;;
24443;SDS011;13346;50.984;5.822;2023-04-24T00:14:28;2.57;;;2.37;;
24443;SDS011;13346;50.984;5.822;2023-04-24T00:16:56;3.10;;;2.90;;
24443;SDS011;13346;50.984;5.822;2023-04-24T00:19:24;2.87;;;2.67;;
24443;SDS011;13346;50.984;5.822;2023-04-24T00:21:51;3.60;;;3.00;;
24443;SDS011;13346;50.984;5.822;2023-04-24T00:24:19;5.40;;;3.40;;
24443;SDS011;13346;50.984;5.822;2023-04-24T00:26:46;4.63;;;4.23;;
24443;SDS011;13346;50.984;5.822;2023-04-24T00:29:13;6.33;;;4.27;;
24443;SDS011;13346;50.984;5.822;2023-04-24T00:31:40;3.93;;;3.37;;
24443;SDS011;13346;50.984;5.822;2023-04-24T00:34:08;3.87;;;3.50;;
24443;SDS011;13346;50.984;5.822;2023-04-24T00:36:37;3.87;;;3.53;;
24443;SDS011;13346;50.984;5.822;2023-04-24T00:39:04;4.53;;;4.13;;
24443;SDS011;13346;50.984;5.822;2023-04-24T00:41:33;8.50;;;5.00;;
24443;SDS011;13346;50.984;5.822;2023-04-24T00:44:01;7.33;;;5.00;;
24443;SDS011;13346;50.984;5.822;2023-04-24T00:46:28;3.87;;;3.57;;
24443;SDS011;13346;50.984;5.822;2023-04-24T00:48:56;7.00;;;6.17;;
24443;SDS011;13346;50.984;5.822;2023-04-24T00:51:25;5.33;;;4.83;;
24443;SDS011;13346;50.984;5.822;2023-04-24T00:53:53;7.20;;;6.57;;
24443;SDS011;13346;50.984;5.822;2023-04-24T00:56:21;4.70;;;4.30;;
24443;SDS011;13346;50.984;5.822;2023-04-24T00:58:48;6.57;;;5.10;;
24443;SDS011;13346;50.984;5.822;2023-04-24T01:01:16;7.07;;;6.37;;
24443;SDS011;13346;50.984;5.822;2023-04-24T01:03:46;7.33;;;6.63;;
24443;SDS011;13346;50.984;5.822;2023-04-24T01:06:13;7.13;;;6.47;;
24443;SDS011;13346;50.984;5.822;2023-04-24T01:08:41;7.27;;;5.87;;
24443;SDS011;13346;50.984;5.822;2023-04-24T01:11:11;8.23;;;7.37;;
24443;SDS011;13346;50.984;5.822;2023-04-24T01:13:38;5.10;;;4.70;;
24443;SDS011;13346;50.984;5.822;2023-04-24T01:16:06;6.60;;;5.63;;
24443;SDS011;13346;50.984;5.822;2023-04-24T01:18:33;7.63;;;6.40;;
24443;SDS011;13346;50.984;5.822;2023-04-24T01:21:02;9.63;;;6.47;;
24443;SDS011;13346;50.984;5.822;2023-04-24T01:23:32;10.70;;;6.97;;
24443;SDS011;13346;50.984;5.822;2023-04-24T01:26:00;8.40;;;6.93;;
24443;SDS011;13346;50.984;5.822;2023-04-24T01:28:27;9.63;;;7.33;;
24443;SDS011;13346;50.984;5.822;2023-04-24T01:30:54;7.83;;;7.03;;
24443;SDS011;13346;50.984;5.822;2023-04-24T01:33:22;9.47;;;7.57;;
24443;SDS011;13346;50.984;5.822;2023-04-24T01:35:50;5.93;;;5.37;;
24443;SDS011;13346;50.984;5.822;2023-04-24T01:38:17;6.07;;;5.50;;
24443;SDS011;13346;50.984;5.822;2023-04-24T01:40:46;7.60;;;6.20;;
24443;SDS011;13346;50.984;5.822;2023-04-24T01:43:13;8.73;;;7.03;;
24443;SDS011;13346;50.984;5.822;2023-04-24T01:45:41;9.70;;;8.80;;
24443;SDS011;13346;50.984;5.822;2023-04-24T01:48:08;9.47;;;7.77;;
24443;SDS011;13346;50.984;5.822;2023-04-24T01:50:36;10.43;;;7.07;;
24443;SDS011;13346;50.984;5.822;2023-04-24T01:53:03;12.67;;;8.80;;
24443;SDS011;13346;50.984;5.822;2023-04-24T01:55:30;7.80;;;5.27;;
24443;SDS011;13346;50.984;5.822;2023-04-24T22:52:42;11.03;;;4.37;;
24443;SDS011;13346;50.984;5.822;2023-04-24T22:55:10;7.37;;;3.33;;
24443;SDS011;13346;50.984;5.822;2023-04-24T22:57:37;12.10;;;4.63;;
24443;SDS011;13346;50.984;5.822;2023-04-24T23:00:06;5.27;;;3.77;;
24443;SDS011;13346;50.984;5.822;2023-04-24T23:02:36;5.70;;;3.83;;
24443;SDS011;13346;50.984;5.822;2023-04-24T23:05:05;7.27;;;4.00;;
24443;SDS011;13346;50.984;5.822;2023-04-24T23:07:33;6.70;;;4.40;;
24443;SDS011;13346;50.984;5.822;2023-04-24T23:10:04;7.40;;;3.87;;
24443;SDS011;13346;50.984;5.822;2023-04-24T23:12:32;10.87;;;4.57;;
24443;SDS011;13346;50.984;5.822;2023-04-24T23:14:59;10.03;;;4.53;;
24443;SDS011;13346;50.984;5.822;2023-04-24T23:17:26;12.27;;;4.63;;
24443;SDS011;13346;50.984;5.822;2023-04-24T23:19:53;9.13;;;3.77;;
24443;SDS011;13346;50.984;5.822;2023-04-24T23:22:21;9.27;;;3.40;;
24443;SDS011;13346;50.984;5.822;2023-04-24T23:24:48;12.67;;;3.57;;
24443;SDS011;13346;50.984;5.822;2023-04-24T23:27:17;4.97;;;3.80;;
24443;SDS011;13346;50.984;5.822;2023-04-24T23:29:44;6.90;;;3.63;;
24443;SDS011;13346;50.984;5.822;2023-04-24T23:32:11;9.40;;;4.87;;
24443;SDS011;13346;50.984;5.822;2023-04-24T23:34:39;6.90;;;4.10;;
24443;SDS011;13346;50.984;5.822;2023-04-24T23:37:06;9.67;;;4.43;;
24443;SDS011;13346;50.984;5.822;2023-04-24T23:39:33;19.10;;;4.00;;
24443;SDS011;13346;50.984;5.822;2023-04-24T23:42:00;15.70;;;4.33;;
24443;SDS011;13346;50.984;5.822;2023-04-24T23:44:29;7.40;;;4.03;;
24443;SDS011;13346;50.984;5.822;2023-04-24T23:46:56;7.23;;;4.23;;
24443;SDS011;13346;50.984;5.822;2023-04-24T23:49:23;6.73;;;3.43;;
24443;SDS011;13346;50.984;5.822;2023-04-24T23:51:51;9.67;;;4.27;;
24443;SDS011;13346;50.984;5.822;2023-04-24T23:54:18;7.03;;;3.63;;
24443;SDS011;13346;50.984;5.822;2023-04-24T23:56:46;10.23;;;4.37;;
24443;SDS011;13346;50.984;5.822;2023-04-24T23:59:13;8.00;;;4.30;;
